Time;durP1;ratioP1;P1;durP2;ratioP2;P2;SDS_P1;SDS_P2;PMS_P1;PMS_P2;Temp;Humidity;BMP_temperature;BMP_pressure;BME280_temperature;BME280_humidity;BME280_pressure;Samples;Min_cycle;Max_cycle;Signal;HPM_P1;HPM_P2
2023/11/08 00:00:13;;;;;;;16.48;11.05;;;9.10;99.90;;;7.78;100.00;100410.88;4961806;28;20038;-79
2023/11/08 00:02:44;;;;;;;18.58;11.77;;;9.00;99.90;;;7.73;100.00;100404.97;4932751;28;20048;-78
2023/11/08 00:05:09;;;;;;;18.42;10.93;;;9.00;99.90;;;7.70;100.00;100412.09;4981503;28;20504;-79
2023/11/08 00:07:35;;;;;;;16.63;10.65;;;8.90;99.90;;;7.67;100.00;100405.19;4972745;28;20042;-78
2023/11/08 00:10:01;;;;;;;15.95;10.25;;;8.90;99.90;;;7.64;100.00;100409.69;4965209;28;20471;-79
2023/11/08 00:12:26;;;;;;;19.95;10.60;;;8.90;99.90;;;7.62;100.00;100412.38;4962491;28;20034;-79
2023/11/08 00:14:52;;;;;;;16.48;9.80;;;8.90;99.90;;;7.60;100.00;100404.59;4963279;28;20096;-78
2023/11/08 00:17:25;;;;;;;23.83;10.88;;;8.90;99.90;;;7.63;100.00;100411.47;4987238;28;20034;-78
2023/11/08 00:19:52;;;;;;;22.27;9.73;;;8.90;99.90;;;7.60;100.00;100406.34;4967883;28;20110;-77
2023/11/08 00:22:17;;;;;;;18.50;10.73;;;8.90;99.90;;;7.60;100.00;100404.59;4986468;28;20114;-78
2023/11/08 00:24:43;;;;;;;14.73;9.95;;;8.90;99.90;;;7.59;100.00;100408.13;4967341;28;20033;-79
2023/11/08 00:27:09;;;;;;;18.00;10.07;;;8.90;99.90;;;7.57;100.00;100403.84;4943401;28;20052;-79
2023/11/08 00:29:42;;;;;;;19.08;9.82;;;8.80;99.90;;;7.51;100.00;100402.31;4949406;28;20038;-78
2023/11/08 00:32:08;;;;;;;18.98;9.65;;;8.80;99.90;;;7.49;100.00;100398.91;4967600;28;20038;-78
2023/11/08 00:34:33;;;;;;;15.63;9.88;;;8.70;99.90;;;7.45;100.00;100405.19;4960185;28;20041;-78
2023/11/08 00:36:59;;;;;;;18.60;9.52;;;8.70;99.90;;;7.38;100.00;100399.31;4958029;28;20042;-78
2023/11/08 00:39:24;;;;;;;24.42;10.10;;;8.70;99.90;;;7.33;100.00;100401.25;4975724;28;20034;-78
2023/11/08 00:41:55;;;;;;;16.13;9.65;;;8.60;99.90;;;7.34;100.00;100395.13;4963638;28;20045;-79
2023/11/08 00:44:21;;;;;;;17.08;9.52;;;8.60;99.90;;;7.36;100.00;100393.31;4983623;28;20048;-78
2023/11/08 00:46:47;;;;;;;20.13;10.60;;;8.60;99.90;;;7.36;100.00;100395.06;4979697;28;20034;-78
2023/11/08 00:49:12;;;;;;;17.73;9.45;;;8.60;99.90;;;7.37;100.00;100399.41;4986737;28;21169;-78
2023/11/08 00:51:39;;;;;;;13.48;9.77;;;8.60;99.90;;;7.36;100.00;100395.06;4964925;28;20136;-80
2023/11/08 00:54:13;;;;;;;18.88;9.73;;;8.60;99.90;;;7.38;100.00;100395.84;4972158;28;20451;-78
2023/11/08 00:56:38;;;;;;;18.08;8.63;;;8.60;99.90;;;7.36;100.00;100402.91;4965311;28;20065;-78
2023/11/08 00:59:04;;;;;;;14.07;8.40;;;8.60;99.90;;;7.35;100.00;100396.81;4971827;28;20042;-78
2023/11/08 01:01:35;;;;;;;15.70;9.02;;;8.60;99.90;;;7.37;100.00;100399.41;4981031;28;20033;-78
2023/11/08 01:04:06;;;;;;;18.80;8.48;;;8.60;99.90;;;7.34;100.00;100399.50;4965249;28;20038;-79
2023/11/08 01:06:32;;;;;;;12.93;8.45;;;8.60;99.90;;;7.31;100.00;100399.63;4982696;28;20053;-79
2023/11/08 01:08:58;;;;;;;14.98;7.97;;;8.60;99.90;;;7.30;100.00;100392.66;4989836;28;20037;-78
2023/11/08 01:11:24;;;;;;;17.73;7.88;;;8.60;99.90;;;7.28;100.00;100392.75;4980222;28;20030;-77
2023/11/08 01:13:55;;;;;;;13.85;8.57;;;8.50;99.90;;;7.26;100.00;100388.47;4988432;28;20033;-78
2023/11/08 01:16:25;;;;;;;14.32;8.00;;;8.50;99.90;;;7.25;100.00;100381.53;4965563;28;20132;-78
2023/11/08 01:18:51;;;;;;;18.48;8.70;;;8.50;99.90;;;7.23;100.00;100384.19;4988072;28;20081;-79
2023/11/08 01:21:17;;;;;;;17.48;8.68;;;8.50;99.90;;;7.21;100.00;100387.78;4990522;28;20037;-78
2023/11/08 01:23:45;;;;;;;18.65;8.48;;;8.50;99.90;;;7.14;100.00;100385.41;4998889;28;20026;-79
2023/11/08 01:26:11;;;;;;;16.38;8.82;;;8.40;99.90;;;7.09;100.00;100391.72;4975509;28;20045;-80
2023/11/08 01:28:36;;;;;;;14.63;8.88;;;8.40;99.90;;;7.06;100.00;100389.22;5005993;28;20037;-80
2023/11/08 01:31:03;;;;;;;16.17;9.93;;;8.30;99.90;;;7.05;100.00;100387.53;4967324;28;20053;-80
2023/11/08 01:33:29;;;;;;;13.20;9.23;;;8.30;99.90;;;7.02;100.00;100378.03;4995187;28;20036;-79
2023/11/08 01:35:55;;;;;;;19.05;9.73;;;8.30;99.90;;;6.99;100.00;100381.59;4998884;28;20132;-80
2023/11/08 01:38:21;;;;;;;15.43;9.32;;;8.30;99.90;;;6.97;100.00;100386.03;4994792;28;20030;-79
2023/11/08 01:40:52;;;;;;;15.50;9.18;;;8.30;99.90;;;6.94;100.00;100380.06;5000462;28;20037;-77
2023/11/08 01:43:27;;;;;;;16.30;10.27;;;8.30;99.90;;;6.91;100.00;100383.66;4984867;28;20123;-79
2023/11/08 01:46:07;;;;;;;16.60;9.82;;;8.20;99.90;;;6.90;100.00;100378.47;4975335;28;20407;-79
2023/11/08 01:48:36;;;;;;;16.40;9.25;;;8.20;99.90;;;6.88;100.00;100378.50;4991508;28;20042;-79
2023/11/08 01:51:04;;;;;;;18.23;10.65;;;8.60;99.90;;;6.88;100.00;100375.06;5002316;28;20051;-79
2023/11/08 01:53:42;;;;;;;21.20;9.80;;;8.20;99.90;;;6.87;100.00;100375.94;4978737;28;20042;-79
2023/11/08 01:56:10;;;;;;;17.60;9.70;;;8.20;99.90;;;6.84;100.00;100371.69;4977995;28;20040;-78
2023/11/08 01:58:38;;;;;;;15.32;9.82;;;8.20;99.90;;;6.82;100.00;100368.28;4995679;28;20045;-78
2023/11/08 02:01:10;;;;;;;18.48;10.57;;;8.10;99.90;;;6.78;100.00;100362.31;4980201;28;20030;-79
2023/11/08 02:03:39;;;;;;;24.98;10.57;;;8.10;99.90;;;6.73;100.00;100363.38;4950442;28;20136;-78
2023/11/08 02:06:14;;;;;;;21.10;11.23;;;8.10;99.90;;;6.67;100.00;100372.28;5000010;28;20034;-79
2023/11/08 02:08:42;;;;;;;22.67;12.07;;;8.00;99.90;;;6.66;100.00;100367.13;5001357;28;20451;-78
2023/11/08 02:11:08;;;;;;;27.52;11.40;;;7.90;99.90;;;6.62;100.00;100371.63;5007811;28;20034;-79
2023/11/08 02:13:42;;;;;;;23.50;11.85;;;7.90;99.90;;;6.58;100.00;100360.41;4992752;28;20114;-78
2023/11/08 02:16:08;;;;;;;26.17;12.10;;;7.90;99.90;;;6.56;100.00;100361.38;4973063;28;20486;-79
2023/11/08 02:18:34;;;;;;;20.92;12.13;;;7.90;99.90;;;6.50;100.00;100365.06;5018455;28;20069;-78
2023/11/08 02:21:00;;;;;;;26.27;12.00;;;7.80;99.90;;;6.46;100.00;100360.84;4942687;28;20033;-78
2023/11/08 02:23:32;;;;;;;26.85;12.32;;;7.80;99.90;;;6.43;100.00;100365.34;4989611;28;20740;-78
2023/11/08 02:25:57;;;;;;;27.92;11.45;;;7.80;99.90;;;6.36;100.00;100362.94;4973010;28;24857;-78
2023/11/08 02:28:23;;;;;;;21.75;11.27;;;7.70;99.90;;;6.36;100.00;100362.09;5001823;28;20033;-78
2023/11/08 02:30:56;;;;;;;23.05;11.50;;;7.70;99.90;;;6.34;100.00;100363.91;4974984;28;20129;-78
2023/11/08 02:33:27;;;;;;;21.48;11.50;;;7.70;99.90;;;6.31;100.00;100362.25;4955510;28;20038;-77
2023/11/08 02:35:53;;;;;;;23.42;11.68;;;7.70;99.90;;;6.32;100.00;100368.31;4992423;28;20029;-79
2023/11/08 02:38:19;;;;;;;21.27;11.65;;;7.70;99.90;;;6.35;100.00;100363.00;4981220;28;20084;-78
2023/11/08 02:40:45;;;;;;;25.15;12.55;;;7.70;99.90;;;6.38;100.00;100367.25;4980306;28;20033;-80
2023/11/08 02:43:16;;;;;;;25.38;12.45;;;7.70;99.90;;;6.42;100.00;100366.25;5004864;28;20114;-78
2023/11/08 02:45:42;;;;;;;22.90;11.50;;;7.70;99.90;;;6.44;100.00;100374.91;4987549;28;20061;-78
2023/11/08 02:48:08;;;;;;;21.77;11.35;;;7.70;99.90;;;6.44;100.00;100372.28;4993230;28;20040;-78
2023/11/08 02:50:37;;;;;;;17.73;11.38;;;7.80;99.90;;;6.47;100.00;100372.16;4966854;28;20092;-79
2023/11/08 02:53:07;;;;;;;21.65;12.38;;;7.80;99.90;;;6.49;100.00;100378.19;4961703;28;20029;-78
2023/11/08 02:55:34;;;;;;;22.45;11.68;;;7.80;99.90;;;6.50;100.00;100375.53;4972101;28;20091;-78
2023/11/08 02:58:00;;;;;;;21.48;10.77;;;7.80;99.90;;;6.50;100.00;100366.81;4993876;28;20061;-79
2023/11/08 03:00:26;;;;;;;25.23;10.52;;;7.80;99.90;;;6.53;100.00;100367.56;4957835;28;20484;-78
2023/11/08 03:03:00;;;;;;;24.05;11.65;;;7.90;99.90;;;6.54;100.00;100365.78;4985080;28;20041;-79
2023/11/08 03:05:25;;;;;;;22.75;11.50;;;7.80;99.90;;;6.53;100.00;100364.94;4990371;28;20100;-80
2023/11/08 03:07:53;;;;;;;21.27;10.07;;;7.90;99.90;;;6.54;100.00;100357.94;4955444;28;20042;-79
2023/11/08 03:10:21;;;;;;;17.00;11.02;;;7.90;99.90;;;6.59;100.00;100361.28;4926915;28;20046;-78
2023/11/08 03:12:51;;;;;;;19.98;12.07;;;7.90;99.90;;;6.61;100.00;100358.59;4959159;28;20107;-78
2023/11/08 03:15:18;;;;;;;22.08;11.23;;;7.90;99.90;;;6.60;100.00;100357.72;4976853;28;20063;-78
2023/11/08 03:17:45;;;;;;;21.13;10.82;;;7.90;99.90;;;6.60;100.00;100355.13;4967346;28;20417;-79
2023/11/08 03:20:15;;;;;;;19.15;11.60;;;7.90;99.90;;;6.64;100.00;100355.88;4966237;28;20053;-79
2023/11/08 03:22:43;;;;;;;18.42;10.65;;;8.00;99.90;;;6.66;100.00;100357.53;4931797;28;20484;-78
2023/11/08 03:25:16;;;;;;;20.67;10.63;;;8.00;99.90;;;6.68;100.00;100350.47;4956519;28;20037;-79
2023/11/08 03:27:45;;;;;;;19.38;10.70;;;8.00;99.90;;;6.68;100.00;100349.63;4982064;28;20432;-78
2023/11/08 03:30:14;;;;;;;27.48;10.88;;;8.00;99.90;;;6.68;100.00;100342.63;4947284;28;20050;-78
2023/11/08 03:32:41;;;;;;;17.70;10.43;;;8.00;99.90;;;6.71;100.00;100344.25;4976928;28;20025;-79
2023/11/08 03:35:07;;;;;;;19.83;10.15;;;8.00;99.90;;;6.73;100.00;100342.44;4979732;28;20045;-78
2023/11/08 03:37:44;;;;;;;16.80;11.48;;;8.10;99.90;;;6.75;100.00;100343.25;4944367;28;20060;-79
2023/11/08 03:40:11;;;;;;;16.92;9.82;;;8.00;99.90;;;6.70;100.00;100332.94;4953856;28;20033;-79
2023/11/08 03:42:46;;;;;;;19.88;10.18;;;8.00;99.90;;;6.72;100.00;100338.97;4964601;28;20112;-78
2023/11/08 03:45:12;;;;;;;17.75;9.13;;;8.00;99.90;;;6.70;100.00;100335.56;4971933;28;20137;-78
2023/11/08 03:47:40;;;;;;;22.00;9.52;;;8.00;99.90;;;6.69;100.00;100328.63;4980964;23;20111;-78
2023/11/08 03:50:10;;;;;;;22.38;9.90;;;8.00;99.90;;;6.70;100.00;100338.19;4944084;28;20583;-78
2023/11/08 03:52:36;;;;;;;22.63;9.45;;;8.00;99.90;;;6.67;100.00;100335.66;4942460;28;20514;-78
2023/11/08 03:55:02;;;;;;;22.33;10.30;;;8.00;99.90;;;6.68;100.00;100336.53;4960562;28;20037;-80
2023/11/08 03:57:29;;;;;;;18.33;9.80;;;8.00;99.90;;;6.68;100.00;100333.94;4948097;28;20062;-78
2023/11/08 03:59:54;;;;;;;17.42;9.30;;;8.00;99.90;;;6.66;100.00;100331.34;4959076;28;20041;-79
2023/11/08 04:02:31;;;;;;;;;;;;;;;;;;;;;
2023/11/08 04:04:57;;;;;;;21.08;9.30;;;8.00;99.90;;;6.63;100.00;100341.94;4944366;28;20054;-78
2023/11/08 04:07:23;;;;;;;16.35;9.30;;;8.00;99.90;;;6.64;100.00;100340.19;4984019;23;20034;-79
2023/11/08 04:09:48;;;;;;;15.30;8.50;;;8.00;99.90;;;6.64;100.00;100346.25;4958079;28;20103;-78
2023/11/08 04:12:24;;;;;;;17.15;9.15;;;8.00;99.90;;;6.65;100.00;100340.13;4979232;28;20064;-78
2023/11/08 04:14:50;;;;;;;18.42;8.90;;;8.00;99.90;;;6.65;100.00;100337.50;5032475;28;20061;-80
2023/11/08 04:17:18;;;;;;;18.48;9.18;;;8.00;99.90;;;6.63;100.00;100336.72;4987031;28;20042;-78
2023/11/08 04:19:46;;;;;;;16.90;8.45;;;7.90;99.90;;;6.63;100.00;100336.72;4992012;28;20537;-78
2023/11/08 04:22:14;;;;;;;16.48;8.90;;;8.00;99.90;;;6.64;100.00;100333.19;4957543;28;20053;-79
2023/11/08 04:24:42;;;;;;;14.70;8.23;;;8.00;99.90;;;6.66;100.00;100341.81;4966705;28;20118;-79
2023/11/08 04:27:10;;;;;;;18.00;8.18;;;8.00;99.90;;;6.67;100.00;100330.44;4960862;28;20028;-78
2023/11/08 04:29:41;;;;;;;18.33;8.77;;;8.00;99.90;;;6.69;100.00;100330.38;4960482;28;20482;-78
2023/11/08 04:32:07;;;;;;;17.73;8.60;;;8.00;99.90;;;6.69;100.00;100327.78;4979625;28;20031;-79
2023/11/08 04:34:33;;;;;;;17.27;8.05;;;8.00;99.90;;;6.70;100.00;100337.34;4960340;28;20531;-78
2023/11/08 04:37:02;;;;;;;16.73;7.55;;;8.00;99.90;;;6.66;100.00;100336.59;5002324;28;20053;-79
2023/11/08 04:39:35;;;;;;;13.80;8.13;;;8.00;99.90;;;6.66;100.00;100336.59;4965562;28;20041;-78
2023/11/08 04:42:01;;;;;;;17.20;7.57;;;8.00;99.90;;;6.67;100.00;100342.66;5009878;28;20025;-79
2023/11/08 04:44:26;;;;;;;16.05;7.72;;;8.00;99.90;;;6.65;100.00;100340.13;4972813;28;20113;-78
2023/11/08 04:46:53;;;;;;;13.50;7.97;;;8.00;99.90;;;6.64;100.00;100343.63;4950059;28;20041;-79
2023/11/08 04:49:27;;;;;;;15.38;7.88;;;8.00;99.90;;;6.65;100.00;100339.25;4964681;28;20033;-79
2023/11/08 04:51:53;;;;;;;16.58;7.22;;;7.90;99.90;;;6.63;100.00;100341.06;4987077;28;20054;-79
2023/11/08 04:54:19;;;;;;;13.05;7.40;;;7.90;99.90;;;6.64;100.00;100338.41;4937673;28;20026;-78
2023/11/08 04:56:44;;;;;;;12.32;7.35;;;8.00;99.90;;;6.65;100.00;100344.47;4970183;28;20096;-78
2023/11/08 04:59:14;;;;;;;13.38;8.07;;;8.00;99.90;;;6.68;100.00;100342.63;4950054;28;20046;-78
2023/11/08 05:01:42;;;;;;;15.88;6.97;;;8.00;99.90;;;6.68;100.00;100345.25;4967006;28;20455;-78
2023/11/08 05:04:08;;;;;;;13.65;7.45;;;8.00;99.90;;;6.71;100.00;100339.03;4943659;28;20177;-78
2023/11/08 05:06:34;;;;;;;15.20;7.45;;;8.00;99.90;;;6.73;100.00;100343.28;5006623;23;20148;-79
2023/11/08 05:08:59;;;;;;;13.85;8.13;;;8.00;99.90;;;6.76;100.00;100340.59;4976950;28;20033;-78
2023/11/08 05:11:27;;;;;;;11.98;7.07;;;8.00;99.90;;;6.76;100.00;100337.13;4963538;28;20068;-80
2023/11/08 05:13:55;;;;;;;17.10;7.45;;;8.10;99.90;;;6.80;100.00;100340.47;4949956;28;20109;-79
2023/11/08 05:16:21;;;;;;;12.95;7.22;;;8.10;99.90;;;6.80;100.00;100335.22;4979361;28;20053;-78
2023/11/08 05:18:47;;;;;;;15.63;7.28;;;8.10;99.90;;;6.79;100.00;100337.00;4961534;28;20494;-80
2023/11/08 05:21:13;;;;;;;14.30;6.90;;;8.10;99.90;;;6.81;100.00;100334.31;4964419;28;20030;-79
2023/11/08 05:23:39;;;;;;;11.80;6.95;;;8.10;99.90;;;6.82;100.00;100342.09;4971412;28;21099;-80
2023/11/08 05:26:06;;;;;;;13.23;7.00;;;8.10;99.90;;;6.80;100.00;100329.97;4978848;23;20402;-78
2023/11/08 05:28:35;;;;;;;15.07;6.45;;;8.10;99.90;;;6.81;100.00;100334.31;4967140;28;21063;-78
2023/11/08 05:31:08;;;;;;;9.13;6.15;;;8.10;99.90;;;6.78;100.00;100328.28;4989397;28;20393;-79
2023/11/08 05:33:36;;;;;;;12.80;6.60;;;8.10;99.90;;;6.77;100.00;100344.88;4948419;28;20054;-78
2023/11/08 05:36:05;;;;;;;16.30;6.65;;;8.10;99.90;;;6.78;100.00;100340.50;4945493;28;20129;-80
2023/11/08 05:38:30;;;;;;;12.52;6.55;;;8.10;99.90;;;6.80;100.00;100337.84;4974518;28;20044;-79
2023/11/08 05:40:56;;;;;;;17.35;6.43;;;8.10;99.90;;;6.77;100.00;100338.81;4971455;28;20049;-79
2023/11/08 05:43:24;;;;;;;12.73;6.38;;;8.10;99.90;;;6.78;100.00;100338.75;4947503;28;20049;-78
2023/11/08 05:45:55;;;;;;;17.83;7.20;;;8.10;99.90;;;6.81;100.00;100335.19;4974024;23;20053;-79
2023/11/08 05:48:21;;;;;;;15.15;6.63;;;8.10;99.90;;;6.80;100.00;100337.84;5008237;28;20033;-78
2023/11/08 05:50:46;;;;;;;15.85;7.00;;;8.10;99.90;;;6.78;100.00;100343.13;4988350;28;20544;-79
2023/11/08 05:53:14;;;;;;;16.50;6.78;;;8.10;99.90;;;6.81;100.00;100336.94;4993137;28;20096;-78
2023/11/08 05:55:40;;;;;;;16.58;7.47;;;8.10;99.90;;;6.81;100.00;100344.78;4994862;28;20039;-79
2023/11/08 05:58:12;;;;;;;18.55;6.43;;;8.10;99.90;;;6.82;100.00;100343.88;4974205;28;20087;-79
2023/11/08 06:00:38;;;;;;;14.38;7.28;;;8.10;99.90;;;6.83;100.00;100353.44;4949778;28;20124;-79
2023/11/08 06:03:04;;;;;;;14.52;6.53;;;8.10;99.90;;;6.84;100.00;100345.50;4987236;28;20059;-79
2023/11/08 06:05:30;;;;;;;13.63;6.85;;;8.10;99.90;;;6.84;100.00;100355.97;4971066;28;20045;-79
2023/11/08 06:07:58;;;;;;;13.48;7.00;;;8.10;99.90;;;6.86;100.00;100355.94;4975391;28;20094;-78
2023/11/08 06:10:27;;;;;;;11.95;6.10;;;8.20;99.90;;;6.86;100.00;100348.09;4985909;28;20068;-79
2023/11/08 06:12:53;;;;;;;16.65;6.38;;;8.20;99.90;;;6.88;100.00;100346.25;4994324;28;20072;-78
2023/11/08 06:15:18;;;;;;;15.15;6.70;;;8.20;99.90;;;6.87;100.00;100348.03;4983917;28;20074;-78
2023/11/08 06:17:44;;;;;;;15.60;6.70;;;8.20;99.90;;;6.90;100.00;100352.28;4994437;28;20492;-78
2023/11/08 06:20:11;;;;;;;15.43;6.80;;;8.20;99.90;;;6.90;100.00;100353.16;5015637;28;20042;-78
2023/11/08 06:22:37;;;;;;;14.10;6.63;;;8.20;99.90;;;6.91;100.00;100351.38;4966270;28;22709;-78
2023/11/08 06:25:08;;;;;;;12.40;6.10;;;8.20;99.90;;;6.93;100.00;100352.16;4995055;28;20048;-79
2023/11/08 06:27:34;;;;;;;13.52;6.85;;;8.30;99.90;;;6.98;100.00;100353.72;4937397;23;20059;-78
2023/11/08 06:30:02;;;;;;;15.32;6.43;;;8.30;99.90;;;7.02;100.00;100359.69;4974541;28;20025;-79
2023/11/08 06:32:28;;;;;;;11.13;5.75;;;8.30;99.90;;;7.04;100.00;100359.63;4970820;28;20065;-79
2023/11/08 06:35:01;;;;;;;14.18;6.53;;;8.30;99.90;;;7.07;100.00;100362.97;4959257;28;20039;-78
2023/11/08 06:37:27;;;;;;;11.45;6.15;;;8.40;99.90;;;7.11;100.00;100361.97;4952445;28;20039;-79
2023/11/08 06:39:53;;;;;;;12.63;6.40;;;8.40;99.90;;;7.12;100.00;100368.03;4938834;28;20594;-78
2023/11/08 06:42:19;;;;;;;10.38;6.68;;;8.40;99.90;;;7.09;100.00;100363.78;4941471;28;20034;-78
2023/11/08 06:44:45;;;;;;;11.85;6.82;;;8.40;99.90;;;7.09;100.00;100369.00;4955595;28;20057;-79
2023/11/08 06:47:15;;;;;;;11.38;5.93;;;8.40;99.90;;;7.08;100.00;100369.06;4934031;28;20065;-80
2023/11/08 06:49:44;;;;;;;10.82;7.07;;;8.40;99.90;;;7.10;100.00;100360.22;4907198;28;20053;-79
2023/11/08 06:52:10;;;;;;;15.88;6.53;;;8.40;99.90;;;7.12;100.00;100368.03;4936726;28;20637;-78
2023/11/08 06:54:35;;;;;;;12.25;6.38;;;8.40;99.90;;;7.15;100.00;100366.16;4947151;28;20050;-79
2023/11/08 06:57:03;;;;;;;8.00;5.47;;;8.40;99.90;;;7.16;100.00;100378.34;4964794;28;20415;-78
2023/11/08 06:59:36;;;;;;;9.35;5.70;;;8.40;99.90;;;7.17;100.00;100377.44;4960219;28;20493;-78
2023/11/08 07:02:03;;;;;;;14.77;5.65;;;8.50;99.90;;;7.17;100.00;100380.06;4927323;28;20459;-77
2023/11/08 07:04:28;;;;;;;13.68;5.90;;;8.50;99.90;;;7.22;100.00;100382.50;4938909;28;20681;-78
2023/11/08 07:06:54;;;;;;;12.52;5.82;;;8.50;99.90;;;7.26;100.00;100383.25;4935647;28;20034;-77
2023/11/08 07:09:27;;;;;;;13.43;5.93;;;8.60;99.90;;;7.32;100.00;100383.84;4952416;28;20041;-78
2023/11/08 07:11:53;;;;;;;13.20;6.30;;;8.60;99.90;;;7.37;100.00;100396.78;4947340;28;20326;-79
2023/11/08 07:14:19;;;;;;;14.63;5.50;;;8.70;99.90;;;7.44;100.00;100393.00;4964091;28;20053;-79
2023/11/08 07:16:45;;;;;;;8.57;5.22;;;8.70;99.90;;;7.45;100.00;100393.84;4909247;28;20038;-78
2023/11/08 07:19:14;;;;;;;9.93;5.50;;;8.70;99.90;;;7.49;100.00;100404.13;4894544;28;20053;-79
2023/11/08 07:21:40;;;;;;;12.32;5.15;;;8.70;99.90;;;7.49;100.00;100401.50;4935149;28;20037;-78
2023/11/08 07:24:09;;;;;;;9.23;4.82;;;8.80;99.90;;;7.50;100.00;100403.25;4931653;28;20497;-77
2023/11/08 07:26:35;;;;;;;11.63;4.50;;;8.80;99.90;;;7.50;100.00;100407.63;4942473;28;20693;-79
2023/11/08 07:29:08;;;;;;;10.85;4.50;;;8.80;99.90;;;7.54;100.00;100411.84;4947393;28;20042;-79
2023/11/08 07:31:36;;;;;;;11.05;4.50;;;8.90;99.90;;;7.54;100.00;100407.44;4951767;28;20031;-78
2023/11/08 07:34:04;;;;;;;10.07;4.85;;;8.80;99.90;;;7.58;100.00;100414.28;4956627;28;20065;-79
2023/11/08 07:36:39;;;;;;;9.38;4.20;;;8.90;99.90;;;7.62;100.00;100414.16;4933198;28;20034;-78
2023/11/08 07:39:06;;;;;;;11.05;4.63;;;8.90;99.90;;;7.62;100.00;100416.78;4889898;28;20505;-78
2023/11/08 07:41:33;;;;;;;6.95;3.83;;;8.90;99.90;;;7.65;100.00;100424.53;4955316;28;20034;-79
2023/11/08 07:44:01;;;;;;;13.32;4.28;;;9.00;99.90;;;7.71;100.00;100421.63;4919613;28;20034;-79
2023/11/08 07:46:30;;;;;;;8.90;4.38;;;9.00;99.90;;;7.75;100.00;100426.72;4938902;28;20041;-80
2023/11/08 07:48:56;;;;;;;9.98;3.97;;;9.00;99.90;;;7.74;100.00;100426.78;4968097;28;20041;-78
2023/11/08 07:51:25;;;;;;;9.38;4.50;;;9.10;99.90;;;7.81;100.00;100422.97;4955322;28;20085;-79
2023/11/08 07:54:00;;;;;;;10.38;4.55;;;9.10;99.90;;;7.79;100.00;100430.91;4945482;28;20061;-79
2023/11/08 07:56:26;;;;;;;10.17;4.37;;;9.10;99.90;;;7.83;100.00;100430.78;4966880;28;20118;-78
2023/11/08 07:58:52;;;;;;;9.65;4.13;;;9.10;99.90;;;7.85;100.00;100419.34;4956138;28;20778;-79
2023/11/08 08:01:26;;;;;;;7.68;3.70;;;9.10;99.90;;;7.84;100.00;100433.38;4928850;28;20043;-77
2023/11/08 08:03:51;;;;;;;12.70;4.15;;;9.10;99.90;;;7.87;100.00;100430.59;4933506;28;20045;-79
2023/11/08 08:06:19;;;;;;;10.55;4.18;;;9.20;99.90;;;7.89;100.00;100431.41;4972652;28;20050;-78
2023/11/08 08:08:45;;;;;;;12.02;3.92;;;9.10;99.90;;;7.87;100.00;100433.22;4940104;28;20038;-79
2023/11/08 08:11:17;;;;;;;8.68;4.00;;;9.10;99.90;;;7.89;100.00;100434.03;4935852;28;20058;-78
2023/11/08 08:13:45;;;;;;;10.07;3.92;;;9.20;99.90;;;7.91;100.00;100437.44;4983540;28;20034;-78
2023/11/08 08:16:12;;;;;;;9.93;4.30;;;9.20;99.90;;;7.86;100.00;100442.03;4971932;28;20066;-79
2023/11/08 08:18:45;;;;;;;8.93;3.72;;;9.10;99.90;;;7.88;100.00;100434.91;4909243;28;20041;-79
2023/11/08 08:21:11;;;;;;;11.70;3.70;;;9.20;99.90;;;7.90;100.00;100443.59;4940875;28;20487;-78
2023/11/08 08:23:37;;;;;;;9.25;4.18;;;9.20;99.90;;;7.92;100.00;100444.38;4945593;28;20049;-78
2023/11/08 08:26:03;;;;;;;9.38;4.15;;;9.20;99.90;;;7.95;100.00;100451.28;4955436;28;20042;-79
2023/11/08 08:28:34;;;;;;;7.38;3.80;;;9.20;99.90;;;7.95;100.00;100451.28;4968947;28;20037;-78
2023/11/08 08:31:01;;;;;;;9.43;3.95;;;9.20;99.90;;;7.99;100.00;100452.84;4929380;28;20046;-78
2023/11/08 08:33:27;;;;;;;10.43;3.78;;;9.30;99.90;;;7.99;100.00;100448.47;4942488;28;20034;-79
2023/11/08 08:35:53;;;;;;;16.02;4.18;;;9.30;99.90;;;8.00;100.00;100438.84;4951270;28;20138;-79
2023/11/08 08:38:19;;;;;;;10.60;3.67;;;9.30;99.90;;;8.06;100.00;100450.84;4963214;28;20069;-77
2023/11/08 08:40:48;;;;;;;10.52;4.47;;;9.30;99.90;;;8.09;100.00;100448.94;4938988;28;20090;-79
2023/11/08 08:43:15;;;;;;;7.32;3.30;;;9.30;99.90;;;8.09;100.00;100456.81;4961067;28;20033;-79
2023/11/08 08:45:41;;;;;;;11.50;3.78;;;9.30;99.90;;;8.10;100.00;100455.91;4928872;28;20056;-78
2023/11/08 08:48:07;;;;;;;14.38;3.55;;;9.40;99.90;;;8.14;100.00;100454.88;4943144;28;20039;-80
2023/11/08 08:50:32;;;;;;;8.35;3.83;;;9.40;99.90;;;8.14;100.00;100461.88;4949240;28;20049;-80
2023/11/08 08:52:58;;;;;;;9.88;3.95;;;9.40;99.90;;;8.13;100.00;100452.31;4979849;28;20049;-80
2023/11/08 08:55:24;;;;;;;8.38;4.15;;;9.40;99.90;;;8.13;100.00;100461.03;4992119;28;20107;-78
2023/11/08 08:57:55;;;;;;;6.95;3.90;;;9.40;99.90;;;8.13;100.00;100461.03;4973540;28;20046;-80
2023/11/08 09:00:23;;;;;;;13.90;3.83;;;9.40;99.90;;;8.14;100.00;100456.63;4969128;28;20043;-79
2023/11/08 09:02:49;;;;;;;6.88;3.53;;;9.40;99.90;;;8.16;100.00;100466.16;4987265;28;20282;-79
2023/11/08 09:05:29;;;;;;;13.02;3.75;;;9.40;99.90;;;8.17;100.00;100462.59;4985483;28;20049;-79
2023/11/08 09:07:56;;;;;;;8.88;3.75;;;9.50;99.90;;;8.22;100.00;100463.25;4959455;28;20117;-79
2023/11/08 09:10:27;;;;;;;8.20;3.83;;;9.50;99.90;;;8.23;100.00;100466.75;4965583;28;20477;-78
2023/11/08 09:12:53;;;;;;;10.00;3.88;;;9.50;99.90;;;8.29;100.00;100465.63;4975307;28;20031;-78
2023/11/08 09:15:18;;;;;;;7.28;3.60;;;9.50;99.90;;;8.31;100.00;100464.66;4956938;28;20863;-79
2023/11/08 09:17:44;;;;;;;11.63;3.83;;;9.60;99.90;;;8.34;100.00;100468.94;4958857;28;20052;-79
2023/11/08 09:20:11;;;;;;;7.30;3.45;;;9.60;99.90;;;8.36;100.00;100462.72;4958959;28;20047;-78
2023/11/08 09:22:43;;;;;;;8.02;3.65;;;9.60;99.90;;;8.37;100.00;100472.25;4990108;28;20052;-79
2023/11/08 09:25:10;;;;;;;8.52;3.67;;;9.60;99.90;;;8.39;100.00;100469.59;4967642;28;20030;-78
2023/11/08 09:27:40;;;;;;;9.00;3.33;;;9.60;99.90;;;8.44;100.00;100472.06;4968479;28;20065;-78
2023/11/08 09:30:11;;;;;;;7.30;3.22;;;9.70;99.90;;;8.47;100.00;100471.94;4967084;28;20069;-77
2023/11/08 09:32:40;;;;;;;5.95;3.35;;;9.70;99.90;;;8.51;100.00;100476.13;4947209;28;20060;-79
2023/11/08 09:35:14;;;;;;;6.85;3.15;;;9.80;99.90;;;8.59;100.00;100474.03;4983829;28;20107;-78
2023/11/08 09:37:43;;;;;;;8.68;3.50;;;9.80;99.90;;;8.66;100.00;100477.25;4968417;28;20033;-77
2023/11/08 09:40:10;;;;;;;12.20;3.45;;;9.90;99.90;;;8.74;100.00;100473.38;4967827;28;20125;-78
2023/11/08 09:42:37;;;;;;;10.00;3.25;;;9.90;99.90;;;8.76;100.00;100470.69;4983639;28;20041;-78
2023/11/08 09:45:11;;;;;;;7.75;3.30;;;10.00;99.90;;;8.83;100.00;100482.63;4958347;28;20026;-78
2023/11/08 09:47:41;;;;;;;9.05;3.20;;;10.10;99.90;;;8.88;100.00;100477.19;4984039;28;20027;-79
2023/11/08 09:50:18;;;;;;;7.25;3.25;;;10.10;99.90;;;8.87;100.00;100472.84;4940161;28;20041;-78
2023/11/08 09:52:53;;;;;;;10.13;3.25;;;10.10;99.90;;;8.88;100.00;100472.78;4984949;28;20069;-79
2023/11/08 09:55:19;;;;;;;6.68;3.25;;;10.10;99.90;;;8.89;100.00;100476.25;4958494;28;20042;-78
2023/11/08 09:57:49;;;;;;;7.72;3.10;;;10.20;99.90;;;8.92;100.00;100473.50;4976774;28;20128;-78
2023/11/08 10:00:25;;;;;;;8.65;3.08;;;10.20;99.90;;;8.97;100.00;100479.41;4965617;28;20072;-79
2023/11/08 10:03:04;;;;;;;4.53;2.85;;;10.20;99.90;;;9.04;100.00;100480.84;4940382;28;20033;-79
2023/11/08 10:05:36;;;;;;;7.22;2.85;;;10.30;99.90;;;9.10;100.00;100485.81;4968196;28;20038;-78
2023/11/08 10:08:12;;;;;;;9.57;2.75;;;10.30;99.90;;;9.09;100.00;100478.84;4970384;28;20035;-79
2023/11/08 10:10:49;;;;;;;9.50;2.58;;;10.30;99.90;;;9.10;98.79;100485.81;4987170;28;20518;-78
2023/11/08 10:13:24;;;;;;;5.75;2.05;;;10.30;99.90;;;9.12;98.92;100476.09;4951030;28;20328;-77
2023/11/08 10:16:18;;;;;;;6.78;2.25;;;10.40;99.90;;;9.18;98.35;100482.88;4968875;28;20043;-78